createdAt,value
2022-10-09T00:03:04.589Z,1019.25
2022-10-09T00:08:03.786Z,1019.22
2022-10-09T00:13:03.967Z,1019.19
2022-10-09T00:18:02.155Z,1019.19
2022-10-09T00:23:01.385Z,1019.10
2022-10-09T00:28:00.569Z,1019.00
2022-10-09T00:33:00.766Z,1018.97
2022-10-09T00:37:59.913Z,1018.92
2022-10-09T00:42:58.091Z,1018.86
2022-10-09T00:47:59.251Z,1018.93
2022-10-09T00:52:57.415Z,1018.85
2022-10-09T00:57:56.574Z,1018.85
2022-10-09T01:02:54.853Z,1018.83
2022-10-09T01:07:54.021Z,1018.75
2022-10-09T01:12:54.209Z,1018.65
2022-10-09T01:17:52.444Z,1018.55
2022-10-09T01:22:51.156Z,1018.51
2022-10-09T01:27:51.010Z,1018.46
2022-10-09T01:32:51.590Z,1018.41
2022-10-09T01:37:49.623Z,1018.38
2022-10-09T01:42:49.223Z,1018.38
2022-10-09T01:47:49.117Z,1018.30
2022-10-09T01:52:48.569Z,1018.25
2022-10-09T01:57:47.672Z,1018.18
2022-10-09T02:02:46.366Z,1018.20
2022-10-09T02:07:45.137Z,1018.16
2022-10-09T02:12:44.454Z,1018.14
2022-10-09T02:17:43.852Z,1018.11
2022-10-09T02:22:43.010Z,1018.21
2022-10-09T02:27:43.154Z,1018.17
2022-10-09T02:32:42.452Z,1018.17
2022-10-09T02:37:41.755Z,1018.18
2022-10-09T02:42:40.049Z,1018.14
2022-10-09T02:47:39.351Z,1018.05
2022-10-09T02:52:38.654Z,1018.08
2022-10-09T02:57:39.022Z,1017.98
2022-10-09T03:02:37.290Z,1017.91
2022-10-09T03:07:37.427Z,1017.91
2022-10-09T03:12:35.712Z,1017.86
2022-10-09T03:17:35.006Z,1017.94
2022-10-09T03:22:34.287Z,1017.98
2022-10-09T03:27:33.575Z,1017.99
2022-10-09T03:32:33.868Z,1017.96
2022-10-09T03:37:33.159Z,1017.94
2022-10-09T03:42:31.469Z,1017.96
2022-10-09T03:47:31.753Z,1017.95
2022-10-09T03:52:31.063Z,1017.90
2022-10-09T03:57:29.374Z,1017.88
2022-10-09T04:02:29.762Z,1017.82
2022-10-09T04:07:29.892Z,1017.77
2022-10-09T04:12:30.183Z,1017.76
2022-10-09T04:17:26.461Z,1017.81
2022-10-09T04:22:25.769Z,1017.73
2022-10-09T04:27:26.073Z,1017.72
2022-10-09T04:32:25.394Z,1017.66
2022-10-09T04:37:23.722Z,1017.67
2022-10-09T04:42:23.044Z,1017.69
2022-10-09T04:47:22.192Z,1017.66
2022-10-09T04:52:21.368Z,1017.63
2022-10-09T04:57:20.546Z,1017.60
2022-10-09T05:02:20.711Z,1017.57
2022-10-09T05:07:18.864Z,1017.56
2022-10-09T05:12:19.159Z,1017.53
2022-10-09T05:17:22.184Z,1017.48
2022-10-09T05:22:17.627Z,1017.49
2022-10-09T05:27:16.922Z,1017.54
2022-10-09T05:32:15.199Z,1017.45
2022-10-09T05:37:15.487Z,1017.44
2022-10-09T05:42:13.788Z,1017.53
2022-10-09T05:47:13.094Z,1017.61
2022-10-09T05:52:12.405Z,1017.60
2022-10-09T05:57:12.750Z,1017.62
2022-10-09T06:02:11.168Z,1017.61
2022-10-09T06:07:09.314Z,1017.66
2022-10-09T06:12:09.653Z,1017.64
2022-10-09T06:17:09.958Z,1017.64
2022-10-09T06:22:09.263Z,1017.73
2022-10-09T06:27:07.565Z,1017.77
2022-10-09T06:32:06.891Z,1017.71
2022-10-09T06:37:06.227Z,1017.75
2022-10-09T06:42:07.580Z,1017.79
2022-10-09T06:47:04.894Z,1017.77
2022-10-09T06:52:04.157Z,1017.83
2022-10-09T06:57:04.461Z,1017.86
2022-10-09T07:02:02.821Z,1017.87
2022-10-09T07:07:02.986Z,1017.89
2022-10-09T07:12:02.287Z,1017.85
2022-10-09T07:17:00.624Z,1017.88
2022-10-09T07:22:00.996Z,1017.92
2022-10-09T07:26:59.118Z,1017.93
2022-10-09T07:31:58.260Z,1017.88
2022-10-09T07:36:57.587Z,1017.80
2022-10-09T07:41:57.861Z,1017.79
2022-10-09T07:46:56.128Z,1017.73
2022-10-09T07:51:55.446Z,1017.72
2022-10-09T07:56:54.746Z,1017.74
2022-10-09T08:01:54.139Z,1017.75
2022-10-09T08:06:53.223Z,1017.80
2022-10-09T08:11:53.514Z,1017.79
2022-10-09T08:16:51.867Z,1017.82
2022-10-09T08:21:51.036Z,1017.78
2022-10-09T08:26:50.166Z,1017.74
2022-10-09T08:31:50.458Z,1017.65
2022-10-09T08:36:48.751Z,1017.67
2022-10-09T08:41:49.053Z,1017.67
2022-10-09T08:46:47.411Z,1017.64
2022-10-09T08:51:47.551Z,1017.68
2022-10-09T08:56:46.851Z,1017.69
2022-10-09T09:01:45.212Z,1017.63
2022-10-09T09:06:44.312Z,1017.65
2022-10-09T09:11:43.596Z,1017.68
2022-10-09T09:16:43.883Z,1017.63
2022-10-09T09:21:42.183Z,1017.57
2022-10-09T09:26:41.461Z,1017.56
2022-10-09T09:31:40.838Z,1017.54
2022-10-09T09:36:39.940Z,1017.45
2022-10-09T09:41:40.236Z,1017.48
2022-10-09T09:46:38.590Z,1017.50
2022-10-09T09:51:38.702Z,1017.43
2022-10-09T09:56:59.660Z,1017.43
2022-10-09T10:01:36.198Z,1017.44
2022-10-09T10:06:36.507Z,1017.35
2022-10-09T10:11:35.858Z,1017.33
2022-10-09T10:16:34.173Z,1017.33
2022-10-09T10:21:33.263Z,1017.32
2022-10-09T10:26:34.550Z,1017.28
2022-10-09T10:31:32.840Z,1017.34
2022-10-09T10:36:32.122Z,1017.31
2022-10-09T10:41:30.392Z,1017.33
2022-10-09T10:46:30.718Z,1017.30
2022-10-09T10:51:28.797Z,1017.33
2022-10-09T10:56:29.091Z,1017.26
2022-10-09T11:01:27.461Z,1017.27
2022-10-09T11:06:28.661Z,1017.28
2022-10-09T11:11:27.952Z,1017.27
2022-10-09T11:16:25.299Z,1017.26
2022-10-09T11:21:24.414Z,1017.25
2022-10-09T11:26:22.697Z,1017.30
2022-10-09T11:31:23.044Z,1017.22
2022-10-09T11:36:22.201Z,1017.17
2022-10-09T11:41:22.337Z,1017.15
2022-10-09T11:46:20.813Z,1017.07
2022-10-09T11:51:19.985Z,1017.07
2022-10-09T11:56:20.328Z,1017.05
2022-10-09T12:01:19.689Z,1016.92
2022-10-09T12:06:19.819Z,1016.85
2022-10-09T12:11:17.110Z,1016.77
2022-10-09T12:16:17.451Z,1016.64
2022-10-09T12:21:15.748Z,1016.63
2022-10-09T12:26:17.066Z,1016.65
2022-10-09T12:31:15.377Z,1016.59
2022-10-09T12:36:14.663Z,1016.47
2022-10-09T12:41:15.645Z,1016.42
2022-10-09T12:46:11.947Z,1016.40
2022-10-09T12:51:12.098Z,1016.46
2022-10-09T12:56:10.211Z,1016.33
2022-10-09T13:01:09.617Z,1016.28
2022-10-09T13:06:09.762Z,1016.18
2022-10-09T13:11:09.073Z,1016.09
2022-10-09T13:16:08.366Z,1016.09
2022-10-09T13:21:10.808Z,1016.12
2022-10-09T13:26:06.926Z,1016.11
2022-10-09T13:31:06.321Z,1016.00
2022-10-09T13:36:04.459Z,1015.96
2022-10-09T13:41:03.784Z,1015.89
2022-10-09T13:46:03.127Z,1015.83
2022-10-09T13:51:02.334Z,1015.75
2022-10-09T13:56:01.550Z,1015.73
2022-10-09T14:01:02.851Z,1015.66
2022-10-09T14:05:59.914Z,1015.65
2022-10-09T14:10:59.102Z,1015.57
2022-10-09T14:15:58.314Z,1015.50
2022-10-09T14:20:59.532Z,1015.50
2022-10-09T14:25:56.701Z,1015.45
2022-10-09T14:30:55.961Z,1015.40
2022-10-09T14:35:56.139Z,1015.43
2022-10-09T14:40:55.315Z,1015.35
2022-10-09T14:45:55.461Z,1015.24
2022-10-09T14:50:54.619Z,1015.20
2022-10-09T14:55:51.759Z,1015.20
2022-10-09T15:00:50.936Z,1015.15
2022-10-09T15:05:50.094Z,1015.11
2022-10-09T15:10:49.272Z,1015.21
2022-10-09T15:15:48.465Z,1015.04
2022-10-09T15:20:48.653Z,1015.07
2022-10-09T15:25:48.853Z,1015.02
2022-10-09T15:30:46.019Z,1015.01
2022-10-09T15:35:47.311Z,1015.00
2022-10-09T15:40:45.511Z,1014.95
2022-10-09T15:45:42.710Z,1015.02
2022-10-09T15:50:42.902Z,1015.01
2022-10-09T15:55:41.106Z,1014.98
2022-10-09T16:00:43.340Z,1014.94
2022-10-09T16:05:40.492Z,1014.91
2022-10-09T16:10:42.199Z,1015.00
2022-10-09T16:15:38.957Z,1015.01
2022-10-09T16:20:39.159Z,1014.89
2022-10-09T16:25:36.345Z,1014.92
2022-10-09T16:30:36.533Z,1014.88
2022-10-09T16:35:35.741Z,1014.93
2022-10-09T16:41:00.971Z,1014.97
2022-10-09T16:45:36.185Z,1014.96
2022-10-09T16:50:34.393Z,1014.97
2022-10-09T16:55:32.583Z,1014.95
2022-10-09T17:00:31.922Z,1015.06
2022-10-09T17:05:30.935Z,1015.05
2022-10-09T17:10:30.296Z,1015.06
2022-10-09T17:15:30.573Z,1015.13
2022-10-09T17:20:28.580Z,1015.19
2022-10-09T17:25:27.935Z,1015.19
2022-10-09T17:30:28.122Z,1015.15
2022-10-09T17:35:28.575Z,1015.23
2022-10-09T17:40:28.375Z,1015.25
2022-10-09T17:45:24.535Z,1015.16
2022-10-09T17:50:23.695Z,1015.24
2022-10-09T17:55:23.036Z,1015.27
2022-10-09T18:00:22.319Z,1015.25
2022-10-09T18:05:21.677Z,1015.22
2022-10-09T18:10:21.537Z,1015.30
2022-10-09T18:15:21.029Z,1015.25
2022-10-09T18:20:19.098Z,1015.27
2022-10-09T18:25:18.565Z,1015.14
2022-10-09T18:30:17.788Z,1015.21
2022-10-09T18:35:16.929Z,1015.09
2022-10-09T18:40:16.541Z,1015.09
2022-10-09T18:45:16.694Z,1015.08
2022-10-09T18:50:17.188Z,1014.96
2022-10-09T18:55:14.096Z,1014.98
2022-10-09T19:00:13.241Z,1014.94
2022-10-09T19:05:12.753Z,1014.99
2022-10-09T19:10:12.832Z,1014.97
2022-10-09T19:15:12.313Z,1014.96
2022-10-09T19:20:11.109Z,1014.96
2022-10-09T19:25:10.261Z,1014.96
2022-10-09T19:30:08.421Z,1014.87
2022-10-09T19:35:08.589Z,1014.84
2022-10-09T19:40:08.058Z,1014.88
2022-10-09T19:45:09.071Z,1014.81
2022-10-09T19:50:05.499Z,1014.80
2022-10-09T19:55:08.519Z,1014.81
2022-10-09T20:00:04.007Z,1014.83
2022-10-09T20:05:04.057Z,1014.88
2022-10-09T20:10:02.087Z,1014.89
2022-10-09T20:15:02.359Z,1014.88
2022-10-09T20:20:01.541Z,1014.87
2022-10-09T20:25:00.748Z,1014.89
2022-10-09T20:29:58.962Z,1014.87
2022-10-09T20:34:57.175Z,1014.91
2022-10-09T20:39:57.401Z,1014.89
2022-10-09T20:44:56.632Z,1014.91
2022-10-09T20:49:56.855Z,1014.99
2022-10-09T20:54:55.082Z,1014.95
2022-10-09T20:59:54.282Z,1014.95
2022-10-09T21:04:54.487Z,1014.93
2022-10-09T21:09:52.783Z,1014.95
2022-10-09T21:14:51.965Z,1014.98
2022-10-09T21:19:52.146Z,1014.98
2022-10-09T21:24:50.328Z,1014.97
2022-10-09T21:29:49.504Z,1015.04
2022-10-09T21:34:49.690Z,1015.07
2022-10-09T21:39:48.864Z,1015.13
2022-10-09T21:44:47.011Z,1015.12
2022-10-09T21:49:46.185Z,1015.07
2022-10-09T21:54:46.374Z,1015.15
2022-10-09T21:59:45.533Z,1015.19
2022-10-09T22:04:43.698Z,1015.19
2022-10-09T22:09:42.886Z,1015.19
2022-10-09T22:14:42.072Z,1015.19
2022-10-09T22:19:41.357Z,1015.22
2022-10-09T22:24:40.567Z,1015.22
2022-10-09T22:29:40.732Z,1015.27
2022-10-09T22:34:42.018Z,1015.26
2022-10-09T22:39:38.171Z,1015.24
2022-10-09T22:44:38.372Z,1015.25
2022-10-09T22:49:38.553Z,1015.21
2022-10-09T22:54:37.726Z,1015.19
2022-10-09T22:59:34.878Z,1015.24
2022-10-09T23:04:34.088Z,1015.20
2022-10-09T23:09:34.279Z,1015.20
2022-10-09T23:14:33.597Z,1015.23
2022-10-09T23:19:32.828Z,1015.22
2022-10-09T23:24:31.037Z,1015.27
2022-10-09T23:29:30.235Z,1015.28
2022-10-09T23:34:30.436Z,1015.24
2022-10-09T23:39:28.655Z,1015.24
2022-10-09T23:44:28.929Z,1015.27
2022-10-09T23:49:27.103Z,1015.33
2022-10-09T23:54:28.367Z,1015.27
2022-10-09T23:59:25.565Z,1015.24
